Time;durP1;ratioP1;P1;durP2;ratioP2;P2;SDS_P1;SDS_P2;PMS_P1;PMS_P2;Temp;Humidity;BMP_temperature;BMP_pressure;BME280_temperature;BME280_humidity;BME280_pressure;Samples;Min_cycle;Max_cycle;Signal;HPM_P1;HPM_P2
2023/04/02 00:00:15;;;;;;;2.77;2.60;;;;;;;10.58;88.80;98438.81;5113521;28;20199;-50
2023/04/02 00:03:08;;;;;;;2.67;2.53;;;;;;;10.43;88.64;98427.38;5112636;28;20280;-50
2023/04/02 00:12:52;;;;;;;3.00;2.80;;;;;;;10.42;88.30;98453.41;5112980;28;20202;-50
2023/04/02 00:22:05;;;;;;;2.67;2.57;;;;;;;10.31;89.64;98456.47;5115059;28;20198;-52
2023/04/02 00:25:07;;;;;;;2.90;2.70;;;;;;;10.26;90.04;98460.19;5115541;28;20673;-51
2023/04/02 00:28:07;;;;;;;2.60;2.50;;;;;;;10.18;90.13;98443.19;5101932;28;20244;-51
2023/04/02 00:31:13;;;;;;;3.10;2.90;;;;;;;10.18;89.25;98438.00;5101652;28;20588;-51
2023/04/02 00:40:08;;;;;;;2.63;2.50;;;;;;;10.30;87.59;98454.78;5098873;28;20634;-52
2023/04/02 00:43:05;;;;;;;2.67;2.50;;;;;;;10.36;87.12;98451.09;5102522;28;20740;-50
2023/04/02 00:55:19;;;;;;;2.20;2.10;;;;;;;10.18;87.92;98463.94;5099620;28;20215;-54
2023/04/02 01:01:11;;;;;;;4.33;2.60;;;;;;;10.22;88.23;98461.22;5101028;28;20249;-52
2023/04/02 01:04:17;;;;;;;3.27;3.07;;;;;;;10.23;88.49;98461.16;5099872;28;20211;-52
2023/04/02 01:07:19;;;;;;;3.37;3.17;;;;;;;10.24;88.45;98449.03;5100859;28;20195;-53
2023/04/02 01:10:26;;;;;;;2.90;2.70;;;;;;;10.34;87.85;98465.88;5097224;28;20206;-53
2023/04/02 01:13:35;;;;;;;3.50;2.70;;;;;;;10.37;87.66;98461.41;5097265;28;20593;-51
2023/04/02 01:23:16;;;;;;;2.93;2.73;;;;;;;10.48;87.07;98476.47;5050103;28;20295;-52
2023/04/02 01:32:42;;;;;;;3.00;2.80;;;;;;;10.39;85.86;98467.34;5059574;28;20680;-50
2023/04/02 01:42:08;;;;;;;3.43;2.93;;;;;;;10.35;85.58;98475.34;5058937;28;20283;-52
2023/04/02 01:45:28;;;;;;;3.00;2.80;;;;;;;10.34;86.12;98478.84;5057532;28;20696;-50
2023/04/02 01:51:49;;;;;;;6.57;2.70;;;;;;;10.30;85.45;98472.09;5058378;28;20580;-50
2023/04/02 01:54:50;;;;;;;3.00;2.80;;;;;;;10.36;84.81;98477.03;5057082;28;20188;-51
2023/04/02 02:07:05;;;;;;;2.90;2.70;;;;;;;10.32;84.39;98467.69;5054043;28;20252;-50
2023/04/02 02:10:04;;;;;;;;;;;;;;;;;;;;;
2023/04/02 02:12:59;;;;;;;2.70;2.50;;;;;;;10.39;84.15;98469.09;5059741;28;20208;-52
2023/04/02 02:19:08;;;;;;;2.47;2.37;;;;;;;10.42;83.80;98456.84;5096589;28;20199;-52
2023/04/02 02:28:16;;;;;;;3.07;2.00;;;;;;;10.37;82.07;98442.41;5096845;28;20589;-51
2023/04/02 02:34:02;;;;;;;1.70;1.60;;;;;;;10.56;78.84;98448.44;5095952;28;20282;-52
2023/04/02 02:36:59;;;;;;;1.77;1.67;;;;;;;10.57;78.41;98454.47;5099086;28;20211;-52
2023/04/02 02:39:50;;;;;;;1.90;1.80;;;;;;;10.64;78.03;98455.84;5099540;28;20203;-51
2023/04/02 02:42:51;;;;;;;1.93;1.83;;;;;;;10.69;78.27;98453.91;5097460;28;20187;-49
2023/04/02 02:46:12;;;;;;;1.77;1.67;;;;;;;10.69;77.67;98454.75;5097901;28;20738;-50
2023/04/02 02:49:29;;;;;;;1.63;1.53;;;;;;;10.73;76.54;98469.25;5097135;28;20195;-51
2023/04/02 02:52:32;;;;;;;2.57;1.60;;;;;;;10.76;75.66;98465.66;5095359;28;20667;-52
2023/04/02 02:55:35;;;;;;;1.90;1.80;;;;;;;10.80;75.28;98460.28;5097606;28;20617;-50
2023/04/02 02:58:22;;;;;;;1.90;1.80;;;;;;;10.78;75.40;98462.09;5098814;28;20756;-50
2023/04/02 03:01:01;;;;;;;1.80;1.70;;;;;;;10.85;75.64;98481.66;5098762;28;20187;-51
2023/04/02 03:04:03;;;;;;;2.10;2.00;;;;;;;10.81;76.90;98477.53;5096278;28;20596;-51
2023/04/02 03:07:16;;;;;;;2.70;2.50;;;;;;;10.65;78.12;98476.53;5099045;28;20218;-49
2023/04/02 03:10:20;;;;;;;3.50;2.30;;;;;;;10.51;80.31;98477.16;5098279;28;20667;-52
2023/04/02 03:16:39;;;;;;;3.90;2.50;;;;;;;10.27;84.02;98459.28;5096651;28;20227;-49
2023/04/02 03:23:22;;;;;;;2.20;2.10;;;;;;;10.36;85.88;98469.25;5096457;28;20625;-51
2023/04/02 03:26:34;;;;;;;2.73;2.53;;;;;;;10.39;86.07;98472.53;5094118;28;20655;-51
2023/04/02 03:32:44;;;;;;;2.33;2.23;;;;;;;10.49;86.37;98478.16;5093827;28;20202;-51
2023/04/02 03:35:45;;;;;;;3.13;2.60;;;;;;;10.46;87.26;98480.88;5095666;28;20640;-50
2023/04/02 03:38:50;;;;;;;2.60;2.40;;;;;;;10.47;87.90;98487.75;5099098;28;20661;-50
2023/04/02 03:42:30;;;;;;;;;;;;;;;;;;;;;
2023/04/02 03:48:51;;;;;;;2.60;2.40;;;;;;;10.37;89.57;98492.53;5093863;28;20195;-51
2023/04/02 03:52:05;;;;;;;2.27;2.17;;;;;;;10.29;90.23;98501.53;5096948;28;20195;-51
2023/04/02 03:55:08;;;;;;;2.80;2.60;;;;;;;10.26;91.13;98502.53;5095578;28;20736;-50
2023/04/02 04:01:03;;;;;;;3.23;2.93;;;;;;;10.17;91.96;98495.94;5087830;28;20199;-52
2023/04/02 04:03:43;;;;;;;3.20;2.83;;;;;;;10.19;91.62;98490.72;5092185;28;20207;-51
2023/04/02 04:09:47;;;;;;;2.83;2.63;;;;;;;10.11;92.87;98497.97;5091728;28;20203;-51
2023/04/02 04:12:25;;;;;;;3.87;2.73;;;;;;;10.10;93.20;98491.94;5092210;28;20690;-50
2023/04/02 04:15:13;;;;;;;3.03;2.70;;;;;;;10.01;95.03;98492.34;5091286;28;20771;-52
2023/04/02 04:17:57;;;;;;;3.57;2.40;;;;;;;9.96;95.35;98493.41;5091096;28;20218;-52
2023/04/02 04:20:32;;;;;;;2.70;2.50;;;;;;;9.99;95.96;98501.91;5090672;28;20610;-52
2023/04/02 04:23:28;;;;;;;2.80;2.60;;;;;;;10.01;95.79;98502.72;5100797;28;20305;-52
2023/04/02 04:26:20;;;;;;;2.67;2.30;;;;;;;10.09;95.17;98505.81;5111314;28;20219;-51
2023/04/02 04:29:04;;;;;;;2.80;2.33;;;;;;;10.14;93.89;98503.88;5111839;28;20684;-53
2023/04/02 04:31:53;;;;;;;2.40;2.20;;;;;;;10.17;93.93;98508.91;5110044;28;20714;-52
2023/04/02 04:34:35;;;;;;;2.93;2.43;;;;;;;10.24;93.76;98514.72;5111173;28;20714;-51
2023/04/02 04:37:24;;;;;;;2.60;2.50;;;;;;;10.27;93.20;98511.16;5110898;28;20233;-51
2023/04/02 04:40:05;;;;;;;2.60;2.40;;;;;;;10.34;92.70;98509.97;5099548;28;20607;-52
2023/04/02 04:42:41;;;;;;;3.97;3.00;;;;;;;10.33;92.28;98503.94;5090088;28;20581;-52
2023/04/02 04:45:31;;;;;;;3.30;2.53;;;;;;;10.45;91.63;98502.56;5090712;28;20223;-52
2023/04/02 04:48:10;;;;;;;4.07;2.30;;;;;;;10.48;90.93;98505.00;5091543;28;20215;-51
2023/04/02 04:50:49;;;;;;;2.60;2.40;;;;;;;10.49;90.49;98509.28;5089007;28;20234;-52
2023/04/02 04:53:30;;;;;;;3.23;2.67;;;;;;;10.54;89.94;98508.16;5099284;28;20228;-53
2023/04/02 04:56:05;;;;;;;3.20;3.00;;;;;;;10.60;89.17;98509.66;5101352;28;20219;-51
2023/04/02 04:59:04;;;;;;;3.33;2.60;;;;;;;10.72;88.08;98509.06;5099608;28;20280;-51
2023/04/02 05:01:48;;;;;;;3.83;3.43;;;;;;;10.75;87.69;98514.13;5099549;28;20215;-50
2023/04/02 05:04:30;;;;;;;5.37;3.70;;;;;;;10.73;87.72;98515.97;5100032;28;20297;-52
2023/04/02 05:07:08;;;;;;;5.20;3.50;;;;;;;10.83;86.59;98519.00;5097776;28;20215;-51
2023/04/02 05:09:48;;;;;;;3.47;3.17;;;;;;;10.89;85.88;98526.50;5100306;28;20218;-50
2023/04/02 05:12:36;;;;;;;2.77;2.57;;;;;;;11.06;84.42;98530.94;5100374;28;20722;-50
2023/04/02 05:15:29;;;;;;;3.13;2.83;;;;;;;11.10;83.26;98535.03;5105075;27;20226;-51
2023/04/02 05:18:37;;;;;;;3.57;3.13;;;;;;;11.24;81.69;98530.06;5110839;28;20231;-51
2023/04/02 05:21:19;;;;;;;4.80;3.37;;;;;;;11.29;81.15;98541.91;5106487;28;20214;-52
2023/04/02 05:24:08;;;;;;;3.63;3.33;;;;;;;11.38;80.58;98532.84;5089675;28;20229;-50
2023/04/02 05:26:44;;;;;;;3.83;3.33;;;;;;;11.44;80.62;98537.72;5099871;28;20219;-50
2023/04/02 05:29:32;;;;;;;3.80;3.50;;;;;;;11.40;80.79;98537.97;5097625;28;20207;-51
2023/04/02 05:32:07;;;;;;;3.87;3.57;;;;;;;11.34;80.84;98539.09;5097961;28;20234;-53
2023/04/02 05:34:48;;;;;;;5.00;3.03;;;;;;;11.36;80.87;98539.88;5099004;28;20223;-53
2023/04/02 05:37:46;;;;;;;3.10;2.90;;;;;;;11.61;79.63;98540.38;5101101;28;20218;-54
2023/04/02 05:40:26;;;;;;;6.33;3.43;;;;;;;11.84;77.96;98549.69;5091743;28;20214;-52
2023/04/02 05:43:10;;;;;;;4.17;3.80;;;;;;;12.22;75.07;98547.75;5097565;28;20280;-52
2023/04/02 05:45:59;;;;;;;3.20;3.00;;;;;;;12.70;72.17;98543.53;5089922;28;20219;-50
2023/04/02 05:48:37;;;;;;;4.10;3.00;;;;;;;13.75;66.82;98561.22;5089061;28;20276;-51
2023/04/02 05:51:19;;;;;;;3.20;3.00;;;;;;;14.59;63.06;98551.09;5090322;28;20226;-51
2023/04/02 05:54:03;;;;;;;3.10;2.60;;;;;;;15.19;59.42;98549.09;5089187;28;20718;-51
2023/04/02 05:56:48;;;;;;;3.93;2.93;;;;;;;15.46;57.69;98556.97;5103770;28;20731;-51
2023/04/02 05:59:34;;;;;;;3.03;2.57;;;;;;;15.85;56.32;98554.41;5110385;28;20215;-50
2023/04/02 06:02:39;;;;;;;3.27;2.97;;;;;;;16.25;54.17;98557.84;5110092;28;20743;-52
2023/04/02 06:05:28;;;;;;;4.80;2.90;;;;;;;16.45;52.53;98563.53;5106540;28;20701;-54
2023/04/02 06:08:19;;;;;;;2.93;2.63;;;;;;;16.84;51.79;98573.91;5108941;28;20610;-51
2023/04/02 06:11:17;;;;;;;2.40;2.30;;;;;;;17.45;50.51;98581.88;5104889;28;20214;-55
2023/04/02 06:14:21;;;;;;;4.67;2.10;;;;;;;17.89;48.61;98586.56;5108037;28;20226;-54
2023/04/02 06:17:09;;;;;;;3.55;2.35;;;;;;;17.88;47.92;98584.88;5069466;28;20233;-54
2023/04/02 06:20:11;;;;;;;2.70;2.50;;;;;;;17.45;49.21;98576.63;5069276;28;20216;-55
2023/04/02 06:23:11;;;;;;;2.70;2.50;;;;;;;17.08;50.00;98573.16;5068109;28;20231;-54
2023/04/02 06:26:16;;;;;;;5.40;2.97;;;;;;;16.87;50.36;98581.59;5061105;28;20307;-54
2023/04/02 06:28:59;;;;;;;3.50;2.80;;;;;;;16.41;51.53;98572.53;5054056;28;20690;-54
2023/04/02 06:31:44;;;;;;;3.63;2.53;;;;;;;15.97;52.73;98579.78;5056182;28;20770;-53
2023/04/02 06:34:32;;;;;;;3.13;2.73;;;;;;;15.75;53.73;98584.75;5059653;28;20297;-55
2023/04/02 06:37:30;;;;;;;3.07;2.83;;;;;;;15.62;54.82;98583.84;5056504;28;20734;-54
2023/04/02 06:40:11;;;;;;;2.77;2.43;;;;;;;15.69;54.43;98594.78;5056652;28;20208;-54
2023/04/02 06:42:51;;;;;;;2.83;2.60;;;;;;;15.58;54.67;98600.66;5057608;28;20726;-54
2023/04/02 06:45:42;;;;;;;3.03;2.73;;;;;;;15.69;54.70;98597.38;5056929;28;20216;-53
2023/04/02 06:48:29;;;;;;;7.83;6.10;;;;;;;15.73;53.89;98602.31;5049255;28;20320;-52
2023/04/02 06:51:19;;;;;;;3.10;2.87;;;;;;;15.70;53.35;98599.03;5049114;28;20278;-52
2023/04/02 06:59:43;;;;;;;2.53;2.33;;;;;;;15.66;53.20;98601.03;5067366;28;20306;-52
2023/04/02 07:02:51;;;;;;;2.80;2.00;;;;;;;15.62;51.95;98607.38;5067738;28;20696;-50
2023/04/02 07:06:05;;;;;;;3.53;1.90;;;;;;;15.71;51.11;98612.03;5054113;28;20692;-50
2023/04/02 07:09:05;;;;;;;2.37;1.93;;;;;;;15.78;50.33;98605.47;5051366;28;20613;-50
2023/04/02 07:12:07;;;;;;;2.37;2.00;;;;;;;15.72;51.02;98616.31;5050493;28;20225;-52
2023/04/02 07:14:56;;;;;;;2.27;1.70;;;;;;;15.86;50.96;98613.66;5076412;28;20268;-52
2023/04/02 07:18:05;;;;;;;5.63;2.50;;;;;;;15.85;50.78;98619.84;5109171;28;20588;-52
2023/04/02 07:21:19;;;;;;;3.10;2.37;;;;;;;15.78;51.07;98620.34;5108021;28;20204;-52
2023/04/02 07:24:21;;;;;;;3.00;2.00;;;;;;;15.76;50.90;98625.66;5107301;28;20631;-52
2023/04/02 07:27:17;;;;;;;;;;;;;;;;;;;;;
2023/04/02 07:30:15;;;;;;;2.70;2.50;;;;;;;15.93;50.76;98632.41;5081078;28;20224;-53
2023/04/02 07:33:15;;;;;;;2.80;2.13;;;;;;;15.96;51.61;98634.84;5108976;28;20212;-53
2023/04/02 07:39:05;;;;;;;2.20;2.00;;;;;;;16.92;49.51;98631.91;5109157;28;20226;-52
2023/04/02 07:42:15;;;;;;;1.43;1.33;;;;;;;17.91;46.80;98643.28;5113493;28;20586;-53
2023/04/02 07:48:32;;;;;;;3.72;2.08;;;;;;;19.89;41.67;98647.31;5113489;28;20267;-53
2023/04/02 07:54:40;;;;;;;2.30;2.20;;;;;;;21.61;37.99;98643.31;5113214;28;20247;-53
2023/04/02 08:00:31;;;;;;;4.03;1.50;;;;;;;23.25;34.38;98630.03;5113178;28;20199;-51
2023/04/02 08:03:28;;;;;;;2.13;1.73;;;;;;;23.33;33.61;98639.94;5110225;28;20186;-51
2023/04/02 08:06:30;;;;;;;;;;;;;;;;;;;;;
2023/04/02 08:09:32;;;;;;;2.13;2.03;;;;;;;23.34;32.67;98631.84;5111034;28;20625;-52
2023/04/02 08:12:40;;;;;;;1.80;1.70;;;;;;;23.73;32.42;98631.66;5108445;28;20202;-53
2023/04/02 08:19:02;;;;;;;3.90;2.38;;;;;;;23.62;32.28;98630.03;5111635;28;20721;-53
2023/04/02 08:21:49;;;;;;;3.38;2.03;;;;;;;23.72;32.36;98635.28;5106259;28;20222;-54
2023/04/02 08:25:04;;;;;;;2.30;2.20;;;;;;;24.67;31.22;98629.41;5112733;28;20272;-53
2023/04/02 08:31:04;;;;;;;2.83;2.63;;;;;;;27.29;27.76;98620.91;5110916;28;20610;-53
2023/04/02 08:34:10;;;;;;;2.58;2.33;;;;;;;28.43;26.28;98631.84;5112587;28;20198;-55
2023/04/02 08:46:18;;;;;;;1.98;1.75;;;;;;;27.25;26.05;98622.25;5109568;28;20205;-55
2023/04/02 08:49:31;;;;;;;1.83;1.17;;;;;;;25.09;28.54;98614.44;5112201;28;20271;-55
2023/04/02 08:59:11;;;;;;;4.30;1.20;;;;;;;23.30;30.73;98603.97;5104654;28;20237;-54
2023/04/02 09:05:18;;;;;;;1.08;1.08;;;;;;;22.36;31.17;98608.38;5110257;28;20199;-54
2023/04/02 09:08:10;;;;;;;0.60;0.60;;;;;;;22.84;30.88;98601.34;5111312;28;20226;-54
2023/04/02 09:11:26;;;;;;;1.60;1.50;;;;;;;23.04;30.95;98606.44;5110393;28;20271;-53
2023/04/02 09:24:06;;;;;;;2.53;1.20;;;;;;;22.23;32.36;98580.56;5070258;28;20612;-53
2023/04/02 09:27:02;;;;;;;2.05;1.23;;;;;;;22.32;32.73;98574.44;5070753;28;20556;-54
2023/04/02 09:36:26;;;;;;;2.45;2.28;;;;;;;23.92;31.44;98572.41;5070226;28;20282;-53
2023/04/02 09:39:24;;;;;;;;;;;;;;;;;;;;;
2023/04/02 09:42:39;;;;;;;1.50;1.48;;;;;;;24.89;29.97;98568.69;5054819;28;20250;-50
2023/04/02 09:48:33;;;;;;;3.47;1.90;;;;;;;29.40;24.93;98573.94;5050131;28;20576;-53
2023/04/02 09:51:35;;;;;;;3.05;1.67;;;;;;;29.91;23.74;98566.72;5049922;28;20211;-53
2023/04/02 09:54:16;;;;;;;1.85;1.52;;;;;;;28.97;24.68;98559.56;5050587;28;20200;-53
2023/04/02 09:57:07;;;;;;;2.40;1.58;;;;;;;27.78;25.41;98562.88;5050266;28;20282;-55
2023/04/02 09:59:38;;;;;;;2.22;1.30;;;;;;;26.11;26.21;98555.81;5049420;28;20200;-53
2023/04/02 10:03:02;;;;;;;1.63;1.52;;;;;;;24.86;27.48;98552.25;5050414;28;20250;-52
2023/04/02 10:05:49;;;;;;;1.63;1.52;;;;;;;24.10;28.12;98557.31;5048784;28;20201;-53
2023/04/02 10:09:03;;;;;;;1.38;1.27;;;;;;;23.59;28.63;98540.25;5050381;28;20575;-53
2023/04/02 10:11:43;;;;;;;0.80;0.80;;;;;;;23.36;28.90;98545.16;5049405;28;20672;-52
2023/04/02 10:14:26;;;;;;;1.08;1.00;;;;;;;23.14;28.97;98527.81;5050363;28;20676;-54
2023/04/02 10:20:21;;;;;;;0.68;0.68;;;;;;;22.57;27.94;98536.00;5050025;28;20197;-52
2023/04/02 10:22:57;;;;;;;3.78;2.03;;;;;;;22.37;28.64;98529.88;5053389;28;20775;-52
2023/04/02 10:25:41;;;;;;;2.15;2.05;;;;;;;22.12;28.47;98530.50;5055098;28;20204;-53
2023/04/02 10:28:30;;;;;;;0.90;0.90;;;;;;;21.99;28.80;98525.50;5049716;28;20230;-53
2023/04/02 10:31:08;;;;;;;3.25;1.30;;;;;;;21.93;28.82;98521.56;5049841;28;20196;-52
2023/04/02 10:33:54;;;;;;;2.53;2.08;;;;;;;21.92;29.15;98508.50;5049536;28;20200;-54
2023/04/02 10:36:41;;;;;;;2.45;2.33;;;;;;;21.90;29.53;98510.44;5049479;28;20634;-54
2023/04/02 10:39:46;;;;;;;1.63;1.52;;;;;;;21.78;30.41;98517.69;5049375;28;20207;-54
2023/04/02 10:42:51;;;;;;;;;;;;;;;;;;;;;
2023/04/02 10:46:00;;;;;;;1.77;1.67;;;;;;;21.52;30.38;98506.84;5048277;28;20204;-54
2023/04/02 10:49:08;;;;;;;1.70;1.60;;;;;;;21.55;30.59;98522.41;5049085;28;20188;-54
2023/04/02 10:55:10;;;;;;;1.55;1.15;;;;;;;21.37;30.62;98506.38;5048274;28;20208;-54
2023/04/02 10:57:57;;;;;;;1.85;1.00;;;;;;;21.32;31.01;98494.59;5047807;28;20266;-54
2023/04/02 11:01:10;;;;;;;1.10;1.02;;;;;;;21.48;28.81;98497.50;5048894;28;20200;-53
2023/04/02 11:13:34;;;;;;;0.63;0.60;;;;;;;21.58;30.03;98487.78;5047047;28;20200;-54
2023/04/02 11:16:30;;;;;;;1.17;1.08;;;;;;;21.55;30.27;98485.44;5077762;28;20227;-52
2023/04/02 11:19:57;;;;;;;1.05;1.05;;;;;;;21.53;30.58;98486.53;5089649;28;20223;-53
2023/04/02 11:23:13;;;;;;;0.80;0.80;;;;;;;21.50;30.51;98477.09;5055337;28;20277;-52
2023/04/02 11:26:22;;;;;;;0.85;0.85;;;;;;;21.50;30.51;98477.09;5088717;28;20243;-52
2023/04/02 11:32:57;;;;;;;1.00;1.00;;;;;;;21.46;30.06;98475.69;5087626;28;20230;-51
2023/04/02 11:39:29;;;;;;;1.50;0.90;;;;;;;21.53;30.55;98457.50;5085659;28;20215;-53
2023/04/02 11:46:01;;;;;;;2.70;0.90;;;;;;;21.21;31.06;98445.41;5088232;28;20203;-52
2023/04/02 11:49:08;;;;;;;1.23;0.98;;;;;;;21.05;31.34;98452.13;5087814;28;20187;-53
2023/04/02 11:54:45;;;;;;;0.90;0.90;;;;;;;20.86;31.58;98432.66;5085882;28;20271;-52
2023/04/02 11:57:30;;;;;;;1.20;1.20;;;;;;;20.78;31.58;98432.47;5089085;28;20196;-51
2023/04/02 12:00:24;;;;;;;0.90;0.90;;;;;;;20.86;31.61;98439.75;5088998;28;20575;-52
2023/04/02 12:03:17;;;;;;;0.88;0.88;;;;;;;20.86;31.61;98434.47;5087670;28;20217;-51
2023/04/02 12:05:57;;;;;;;0.90;0.90;;;;;;;20.85;31.84;98436.25;5088859;28;20585;-51
2023/04/02 12:08:46;;;;;;;0.90;0.90;;;;;;;20.83;31.64;98434.72;5088692;28;20284;-52
2023/04/02 12:11:55;;;;;;;0.75;0.75;;;;;;;20.79;31.75;98428.88;5088827;28;20230;-51
2023/04/02 12:15:07;;;;;;;1.20;1.10;;;;;;;20.82;31.99;98423.34;5102283;28;20210;-51
2023/04/02 12:21:02;;;;;;;1.50;1.35;;;;;;;20.82;32.06;98433.06;5067791;28;20239;-53
2023/04/02 12:23:40;;;;;;;1.70;1.60;;;;;;;20.85;32.31;98428.34;5061704;28;20255;-54
2023/04/02 12:26:31;;;;;;;0.90;0.90;;;;;;;20.69;31.94;98409.56;5051492;28;20224;-52
2023/04/02 12:29:37;;;;;;;3.90;2.10;;;;;;;20.54;32.24;98390.63;5051841;28;20731;-51
2023/04/02 12:32:33;;;;;;;2.25;1.90;;;;;;;20.70;32.43;98421.78;5051493;28;20226;-51
2023/04/02 12:35:50;;;;;;;3.08;2.88;;;;;;;20.57;32.34;98431.72;5062893;28;20219;-51
2023/04/02 12:41:57;;;;;;;1.50;1.40;;;;;;;20.55;32.40;98415.19;5071153;28;20275;-54
2023/04/02 12:44:53;;;;;;;3.65;1.38;;;;;;;20.58;32.38;98414.94;5072203;28;20200;-53
2023/04/02 12:47:55;;;;;;;1.52;1.42;;;;;;;20.76;32.08;98410.72;5071954;28;20203;-52
2023/04/02 12:50:47;;;;;;;1.38;1.20;;;;;;;20.63;32.13;98410.94;5071850;28;20222;-51
2023/04/02 12:53:25;;;;;;;3.20;3.00;;;;;;;20.62;31.80;98404.00;5071457;28;20200;-53
2023/04/02 12:56:48;;;;;;;2.55;2.33;;;;;;;20.66;32.04;98420.38;5071566;28;20231;-53
2023/04/02 13:02:53;;;;;;;2.08;1.98;;;;;;;20.51;32.94;98404.09;5069655;28;20690;-53
2023/04/02 13:05:51;;;;;;;2.30;1.70;;;;;;;20.58;32.76;98414.94;5071691;28;20244;-53
2023/04/02 13:08:55;;;;;;;3.03;1.17;;;;;;;20.59;32.91;98412.19;5071460;28;20194;-51
2023/04/02 13:11:45;;;;;;;1.30;1.20;;;;;;;20.45;32.91;98401.16;5071334;28;20699;-51
2023/04/02 13:14:42;;;;;;;;;;;;;;;;;;;;;
2023/04/02 13:21:22;;;;;;;2.38;1.90;;;;;;;20.52;33.92;98404.94;5071118;28;20204;-50
2023/04/02 13:24:19;;;;;;;;;;;;;;;;;;;;;
2023/04/02 13:27:03;;;;;;;5.85;5.07;;;;;;;20.49;34.31;98406.03;5056792;28;20208;-51
2023/04/02 13:30:13;;;;;;;7.13;5.72;;;;;;;20.47;33.62;98407.13;5071306;28;20267;-52
2023/04/02 13:36:33;;;;;;;4.55;3.08;;;;;;;20.60;35.11;98400.66;5068690;28;20680;-51
2023/04/02 13:49:19;;;;;;;1.85;1.70;;;;;;;20.58;35.35;98386.78;5068484;28;20249;-51
2023/04/02 13:52:37;;;;;;;1.30;1.20;;;;;;;20.65;35.20;98389.72;5070593;28;20279;-51
2023/04/02 13:59:06;;;;;;;;;;;;;;;;;;;;;
2023/04/02 14:05:32;;;;;;;2.40;1.10;;;;;;;20.59;34.00;98392.88;5068830;28;20200;-54
2023/04/02 14:08:50;;;;;;;2.55;1.88;;;;;;;20.59;33.93;98396.34;5070061;28;20203;-54
2023/04/02 14:12:01;;;;;;;1.70;1.60;;;;;;;20.60;34.46;98398.03;5067915;28;20273;-53
2023/04/02 14:15:15;;;;;;;3.13;1.35;;;;;;;20.59;34.66;98392.88;5069929;28;20260;-54
2023/04/02 14:18:27;;;;;;;1.33;1.23;;;;;;;20.63;34.00;98391.66;5069306;28;20239;-53
2023/04/02 14:25:10;;;;;;;0.93;0.93;;;;;;;20.56;33.67;98395.78;5069008;28;20210;-53
2023/04/02 14:31:19;;;;;;;2.10;1.05;;;;;;;20.46;34.04;98397.56;5066981;28;20242;-53
2023/04/02 14:34:30;;;;;;;0.95;0.95;;;;;;;20.46;34.12;98394.91;5064118;28;20211;-52
2023/04/02 14:37:42;;;;;;;0.93;0.90;;;;;;;20.41;34.22;98386.59;5064865;28;20204;-52
2023/04/02 14:44:14;;;;;;;;;;;;;;;;;;;;;
2023/04/02 14:53:57;;;;;;;1.30;1.30;;;;;;;20.22;33.80;98388.13;5069529;28;20744;-53
2023/04/02 15:00:08;;;;;;;1.10;1.00;;;;;;;20.36;33.54;98386.16;5068767;28;20242;-54
2023/04/02 15:06:22;;;;;;;1.23;1.17;;;;;;;20.51;33.13;98383.03;5069614;28;20203;-52
2023/04/02 15:12:26;;;;;;;1.38;1.27;;;;;;;20.35;33.49;98398.47;5066420;28;20219;-51
2023/04/02 15:15:11;;;;;;;1.60;1.50;;;;;;;20.29;33.67;98385.81;5071014;28;20199;-51
2023/04/02 15:17:50;;;;;;;1.00;1.00;;;;;;;20.43;33.33;98400.47;5109203;28;20225;-53
2023/04/02 15:20:21;;;;;;;1.38;0.85;;;;;;;20.35;33.44;98401.13;5104416;28;20264;-52
2023/04/02 15:23:35;;;;;;;1.83;0.93;;;;;;;20.35;33.25;98402.88;5092509;28;20230;-52
2023/04/02 15:26:36;;;;;;;1.65;1.00;;;;;;;20.35;33.24;98408.16;5089546;28;20231;-51
2023/04/02 15:29:36;;;;;;;1.25;1.23;;;;;;;20.30;33.31;98411.22;5088660;28;20686;-52
2023/04/02 17:12:51;;;;;;;3.13;2.93;;;;;;;17.87;36.63;98462.47;4587905;27;15223281;-55
2023/04/02 17:15:35;;;;;;;2.75;2.53;;;;;;;17.83;36.98;98464.50;5106612;28;20198;-56
2023/04/02 17:18:25;;;;;;;2.22;1.92;;;;;;;17.82;37.04;98462.81;5104547;28;20187;-55
2023/04/02 17:21:13;;;;;;;2.10;1.83;;;;;;;17.77;36.79;98457.06;5105466;28;20222;-54
2023/04/02 17:23:58;;;;;;;3.50;2.30;;;;;;;17.85;37.03;98478.31;5105945;28;20385;-54
2023/04/02 17:26:42;;;;;;;3.25;2.30;;;;;;;17.94;37.26;98479.44;5086285;28;20325;-53
2023/04/02 17:29:38;;;;;;;2.95;2.38;;;;;;;17.93;37.06;98491.72;5085525;28;20313;-51
2023/04/02 17:32:26;;;;;;;2.60;2.40;;;;;;;17.97;37.76;98492.31;5093844;28;20607;-52
2023/04/02 17:35:22;;;;;;;3.80;3.15;;;;;;;17.95;37.14;98502.94;5104004;28;21671;-52
2023/04/02 17:38:15;;;;;;;3.15;2.95;;;;;;;17.89;37.88;98503.41;5103816;28;20226;-53
2023/04/02 17:40:58;;;;;;;2.20;2.10;;;;;;;17.85;37.40;98508.97;5103190;28;20246;-54
2023/04/02 17:43:59;;;;;;;2.00;1.90;;;;;;;17.85;37.43;98514.22;5101788;28;20227;-53
2023/04/02 17:46:58;;;;;;;2.22;1.73;;;;;;;17.78;37.82;98525.19;5103820;28;20205;-54
2023/04/02 17:49:57;;;;;;;2.35;2.15;;;;;;;17.85;37.55;98525.56;5104593;28;20206;-57
2023/04/02 17:52:44;;;;;;;1.95;1.85;;;;;;;17.87;37.92;98536.81;5100945;28;20250;-53
2023/04/02 17:55:30;;;;;;;3.28;2.30;;;;;;;17.87;37.95;98531.56;5103626;28;20218;-53
2023/04/02 17:58:25;;;;;;;2.67;2.47;;;;;;;17.80;37.87;98537.38;5101106;28;20614;-53
2023/04/02 18:01:18;;;;;;;3.30;2.40;;;;;;;17.69;37.90;98538.16;5103443;28;20222;-53
2023/04/02 18:04:35;;;;;;;2.65;2.45;;;;;;;17.64;38.13;98546.38;5105234;28;20223;-57
2023/04/02 18:10:27;;;;;;;2.60;2.40;;;;;;;17.56;38.13;98553.09;5105256;28;20258;-56
2023/04/02 18:12:59;;;;;;;5.67;5.07;;;;;;;17.53;38.76;98545.44;5102852;28;20347;-56
2023/04/02 18:16:08;;;;;;;9.02;4.97;;;;;;;17.50;38.63;98543.88;5104371;28;20670;-56
2023/04/02 18:19:07;;;;;;;6.65;4.78;;;;;;;17.38;38.88;98540.34;5075217;28;20222;-56
2023/04/02 18:21:59;;;;;;;4.72;4.22;;;;;;;17.40;38.88;98541.06;5104872;28;20227;-54
2023/04/02 18:24:58;;;;;;;3.43;3.13;;;;;;;17.37;38.85;98554.44;5091490;28;20654;-54
2023/04/02 18:27:53;;;;;;;6.03;3.45;;;;;;;17.30;39.15;98541.84;5091328;28;20246;-54
2023/04/02 18:30:30;;;;;;;3.37;3.07;;;;;;;17.24;39.37;98548.38;5092046;28;20240;-54
2023/04/02 18:33:30;;;;;;;3.97;3.60;;;;;;;17.20;39.27;98553.94;5091538;28;20215;-55
2023/04/02 18:36:21;;;;;;;5.07;3.25;;;;;;;17.05;39.46;98559.31;5090333;28;20215;-53
2023/04/02 18:39:05;;;;;;;4.17;3.87;;;;;;;16.99;39.93;98569.41;5091536;28;20250;-54
2023/04/02 18:41:57;;;;;;;5.00;4.60;;;;;;;16.91;41.20;98584.84;5090923;28;20245;-54
2023/04/02 18:44:48;;;;;;;5.17;4.67;;;;;;;16.79;40.91;98581.28;5091349;28;20605;-54
2023/04/02 18:47:29;;;;;;;4.90;4.10;;;;;;;16.76;41.11;98589.34;5091160;28;20734;-55
2023/04/02 18:50:20;;;;;;;4.03;3.63;;;;;;;16.74;40.87;98585.16;5090948;28;20719;-55
2023/04/02 18:52:51;;;;;;;4.50;3.70;;;;;;;16.66;41.44;98578.66;5089822;28;20223;-54
2023/04/02 18:55:26;;;;;;;4.30;3.30;;;;;;;16.68;41.55;98579.41;5091116;28;20212;-54
2023/04/02 18:58:03;;;;;;;3.97;3.67;;;;;;;16.64;41.29;98585.78;5090500;28;20218;-55
2023/04/02 19:00:40;;;;;;;2.73;2.50;;;;;;;16.63;41.69;98583.25;5091120;28;20215;-54
2023/04/02 19:03:18;;;;;;;5.17;3.70;;;;;;;16.58;41.64;98587.97;5090388;28;20610;-55
2023/04/02 19:05:56;;;;;;;4.13;3.27;;;;;;;16.57;41.92;98587.13;5089738;28;20306;-55
2023/04/02 19:08:35;;;;;;;4.10;3.10;;;;;;;16.52;42.09;98583.13;5090924;28;20718;-54
2023/04/02 19:11:27;;;;;;;4.70;3.60;;;;;;;16.54;41.94;98596.97;5090012;28;20227;-54
2023/04/02 19:14:04;;;;;;;5.40;4.10;;;;;;;16.49;42.44;98597.25;5090488;28;20699;-54
2023/04/02 19:20:10;;;;;;;4.07;2.47;;;;;;;16.45;42.47;98615.91;5089225;28;20225;-54
2023/04/02 19:23:05;;;;;;;3.30;3.00;;;;;;;16.50;43.04;98624.28;5090507;28;20231;-53
2023/04/02 19:25:51;;;;;;;4.43;2.90;;;;;;;16.42;42.97;98624.81;5089166;28;20219;-53
2023/04/02 19:28:36;;;;;;;4.50;4.10;;;;;;;16.40;43.39;98636.31;5090556;28;20219;-52
2023/04/02 19:31:30;;;;;;;6.43;5.30;;;;;;;16.32;43.59;98634.22;5090107;28;20250;-53
2023/04/02 19:34:19;;;;;;;5.53;4.93;;;;;;;16.28;44.01;98635.34;5089214;28;20219;-53
2023/04/02 19:36:56;;;;;;;7.57;5.23;;;;;;;16.18;44.09;98645.59;5089949;28;20246;-54
2023/04/02 19:40:00;;;;;;;9.97;5.33;;;;;;;16.14;43.90;98633.63;5090428;28;20313;-54
2023/04/02 19:42:47;;;;;;;6.03;4.13;;;;;;;16.05;44.07;98634.25;5090269;28;20322;-54
2023/04/02 19:45:42;;;;;;;6.30;3.60;;;;;;;16.11;43.94;98639.09;5090183;28;20214;-54
2023/04/02 19:48:27;;;;;;;3.97;3.67;;;;;;;16.07;44.39;98644.63;5090237;28;20230;-53
2023/04/02 19:51:04;;;;;;;4.43;3.33;;;;;;;16.04;44.48;98650.03;5090027;28;20301;-54